sensor_id;sensor_type;location;lat;lon;timestamp;P1;durP1;ratioP1;P2;durP2;ratioP2
7607;SDS011;3845;48.120;11.534;2022-10-16T00:01:37;3.97;;;1.93;;
7607;SDS011;3845;48.120;11.534;2022-10-16T00:04:03;2.40;;;2.17;;
7607;SDS011;3845;48.120;11.534;2022-10-16T00:06:29;2.20;;;1.90;;
7607;SDS011;3845;48.120;11.534;2022-10-16T00:08:55;3.40;;;2.10;;
7607;SDS011;3845;48.120;11.534;2022-10-16T00:11:21;2.10;;;1.90;;
7607;SDS011;3845;48.120;11.534;2022-10-16T00:13:51;2.10;;;1.90;;
7607;SDS011;3845;48.120;11.534;2022-10-16T00:16:19;2.57;;;1.90;;
7607;SDS011;3845;48.120;11.534;2022-10-16T00:18:45;2.43;;;1.97;;
7607;SDS011;3845;48.120;11.534;2022-10-16T00:21:12;4.73;;;2.00;;
7607;SDS011;3845;48.120;11.534;2022-10-16T00:23:42;2.57;;;1.93;;
7607;SDS011;3845;48.120;11.534;2022-10-16T00:26:09;2.77;;;2.10;;
7607;SDS011;3845;48.120;11.534;2022-10-16T00:28:37;2.60;;;1.93;;
7607;SDS011;3845;48.120;11.534;2022-10-16T00:31:05;3.37;;;2.20;;
7607;SDS011;3845;48.120;11.534;2022-10-16T00:33:33;2.97;;;1.93;;
7607;SDS011;3845;48.120;11.534;2022-10-16T00:35:59;3.10;;;1.90;;
7607;SDS011;3845;48.120;11.534;2022-10-16T00:38:25;2.27;;;1.90;;
7607;SDS011;3845;48.120;11.534;2022-10-16T00:40:50;2.50;;;2.00;;
7607;SDS011;3845;48.120;11.534;2022-10-16T00:46:01;3.97;;;2.40;;
7607;SDS011;3845;48.120;11.534;2022-10-16T00:48:27;2.20;;;2.00;;
7607;SDS011;3845;48.120;11.534;2022-10-16T00:50:53;1.90;;;1.63;;
7607;SDS011;3845;48.120;11.534;2022-10-16T00:53:18;2.17;;;1.97;;
7607;SDS011;3845;48.120;11.534;2022-10-16T00:55:44;2.10;;;1.90;;
7607;SDS011;3845;48.120;11.534;2022-10-16T00:58:10;2.73;;;1.90;;
7607;SDS011;3845;48.120;11.534;2022-10-16T01:00:36;2.17;;;1.70;;
7607;SDS011;3845;48.120;11.534;2022-10-16T01:03:01;2.20;;;2.00;;
7607;SDS011;3845;48.120;11.534;2022-10-16T01:05:33;2.80;;;1.77;;
7607;SDS011;3845;48.120;11.534;2022-10-16T01:08:12;1.70;;;1.60;;
7607;SDS011;3845;48.120;11.534;2022-10-16T01:13:21;3.13;;;1.60;;
7607;SDS011;3845;48.120;11.534;2022-10-16T01:15:54;1.63;;;1.53;;
7607;SDS011;3845;48.120;11.534;2022-10-16T01:18:31;2.03;;;1.63;;
7607;SDS011;3845;48.120;11.534;2022-10-16T01:21:01;2.83;;;1.50;;
7607;SDS011;3845;48.120;11.534;2022-10-16T01:23:36;2.00;;;1.80;;
7607;SDS011;3845;48.120;11.534;2022-10-16T01:32:01;3.30;;;1.80;;
7607;SDS011;3845;48.120;11.534;2022-10-16T01:34:35;2.33;;;1.80;;
7607;SDS011;3845;48.120;11.534;2022-10-16T01:37:04;1.90;;;1.60;;
7607;SDS011;3845;48.120;11.534;2022-10-16T01:39:32;1.87;;;1.63;;
7607;SDS011;3845;48.120;11.534;2022-10-16T01:42:11;1.63;;;1.53;;
7607;SDS011;3845;48.120;11.534;2022-10-16T01:44:39;2.03;;;1.40;;
7607;SDS011;3845;48.120;11.534;2022-10-16T01:47:06;1.60;;;1.50;;
7607;SDS011;3845;48.120;11.534;2022-10-16T01:49:33;1.90;;;1.60;;
7607;SDS011;3845;48.120;11.534;2022-10-16T01:52:02;1.70;;;1.50;;
7607;SDS011;3845;48.120;11.534;2022-10-16T01:54:31;2.50;;;1.50;;
7607;SDS011;3845;48.120;11.534;2022-10-16T01:56:57;1.50;;;1.30;;
7607;SDS011;3845;48.120;11.534;2022-10-16T01:59:24;1.73;;;1.27;;
7607;SDS011;3845;48.120;11.534;2022-10-16T02:01:59;1.57;;;1.40;;
7607;SDS011;3845;48.120;11.534;2022-10-16T02:04:33;1.50;;;1.40;;
7607;SDS011;3845;48.120;11.534;2022-10-16T02:07:00;4.50;;;1.40;;
7607;SDS011;3845;48.120;11.534;2022-10-16T02:09:25;1.50;;;1.40;;
7607;SDS011;3845;48.120;11.534;2022-10-16T02:11:52;1.53;;;1.43;;
7607;SDS011;3845;48.120;11.534;2022-10-16T02:14:19;2.63;;;1.40;;
7607;SDS011;3845;48.120;11.534;2022-10-16T02:16:45;1.53;;;1.30;;
7607;SDS011;3845;48.120;11.534;2022-10-16T02:19:14;1.40;;;1.30;;
7607;SDS011;3845;48.120;11.534;2022-10-16T02:21:47;2.80;;;1.40;;
7607;SDS011;3845;48.120;11.534;2022-10-16T02:24:30;1.40;;;1.30;;
7607;SDS011;3845;48.120;11.534;2022-10-16T02:29:49;4.20;;;3.47;;
7607;SDS011;3845;48.120;11.534;2022-10-16T02:32:19;3.30;;;2.70;;
7607;SDS011;3845;48.120;11.534;2022-10-16T02:34:47;4.80;;;3.03;;
7607;SDS011;3845;48.120;11.534;2022-10-16T02:37:13;2.90;;;2.40;;
7607;SDS011;3845;48.120;11.534;2022-10-16T02:39:39;2.50;;;2.07;;
7607;SDS011;3845;48.120;11.534;2022-10-16T02:42:09;3.13;;;1.80;;
7607;SDS011;3845;48.120;11.534;2022-10-16T02:44:36;3.10;;;1.60;;
7607;SDS011;3845;48.120;11.534;2022-10-16T02:47:01;1.80;;;1.70;;
7607;SDS011;3845;48.120;11.534;2022-10-16T02:49:26;3.30;;;1.70;;
7607;SDS011;3845;48.120;11.534;2022-10-16T02:51:52;1.80;;;1.53;;
7607;SDS011;3845;48.120;11.534;2022-10-16T02:54:17;1.67;;;1.47;;
7607;SDS011;3845;48.120;11.534;2022-10-16T02:56:42;1.50;;;1.37;;
7607;SDS011;3845;48.120;11.534;2022-10-16T02:59:07;1.73;;;1.50;;
7607;SDS011;3845;48.120;11.534;2022-10-16T03:01:33;1.80;;;1.40;;
7607;SDS011;3845;48.120;11.534;2022-10-16T03:03:58;1.50;;;1.40;;
7607;SDS011;3845;48.120;11.534;2022-10-16T03:06:24;1.40;;;1.30;;
7607;SDS011;3845;48.120;11.534;2022-10-16T03:08:49;1.50;;;1.40;;
7607;SDS011;3845;48.120;11.534;2022-10-16T03:11:14;1.50;;;1.30;;
7607;SDS011;3845;48.120;11.534;2022-10-16T03:13:40;1.40;;;1.30;;
7607;SDS011;3845;48.120;11.534;2022-10-16T03:16:05;1.83;;;1.50;;
7607;SDS011;3845;48.120;11.534;2022-10-16T03:18:30;1.57;;;1.43;;
7607;SDS011;3845;48.120;11.534;2022-10-16T03:20:55;1.80;;;1.60;;
7607;SDS011;3845;48.120;11.534;2022-10-16T03:23:21;2.33;;;1.57;;
7607;SDS011;3845;48.120;11.534;2022-10-16T03:25:46;1.50;;;1.40;;
7607;SDS011;3845;48.120;11.534;2022-10-16T03:28:11;1.77;;;1.60;;
7607;SDS011;3845;48.120;11.534;2022-10-16T03:30:36;2.23;;;1.60;;
7607;SDS011;3845;48.120;11.534;2022-10-16T03:33:02;4.10;;;2.80;;
7607;SDS011;3845;48.120;11.534;2022-10-16T03:35:27;4.73;;;3.87;;
7607;SDS011;3845;48.120;11.534;2022-10-16T03:37:52;4.27;;;3.87;;
7607;SDS011;3845;48.120;11.534;2022-10-16T03:40:18;3.03;;;2.60;;
7607;SDS011;3845;48.120;11.534;2022-10-16T03:42:43;3.63;;;2.60;;
7607;SDS011;3845;48.120;11.534;2022-10-16T03:45:10;2.13;;;1.90;;
7607;SDS011;3845;48.120;11.534;2022-10-16T03:47:35;2.27;;;1.97;;
7607;SDS011;3845;48.120;11.534;2022-10-16T03:50:01;2.07;;;1.87;;
7607;SDS011;3845;48.120;11.534;2022-10-16T03:52:27;2.10;;;1.90;;
7607;SDS011;3845;48.120;11.534;2022-10-16T03:54:52;1.90;;;1.70;;
7607;SDS011;3845;48.120;11.534;2022-10-16T03:57:17;2.20;;;2.00;;
7607;SDS011;3845;48.120;11.534;2022-10-16T03:59:43;2.60;;;2.40;;
7607;SDS011;3845;48.120;11.534;2022-10-16T04:02:08;3.23;;;2.40;;
7607;SDS011;3845;48.120;11.534;2022-10-16T04:04:33;2.73;;;2.20;;
7607;SDS011;3845;48.120;11.534;2022-10-16T04:06:59;1.83;;;1.73;;
7607;SDS011;3845;48.120;11.534;2022-10-16T04:09:24;2.33;;;1.90;;
7607;SDS011;3845;48.120;11.534;2022-10-16T04:11:49;2.83;;;2.17;;
7607;SDS011;3845;48.120;11.534;2022-10-16T04:14:15;2.50;;;2.10;;
7607;SDS011;3845;48.120;11.534;2022-10-16T04:16:40;2.93;;;2.30;;
7607;SDS011;3845;48.120;11.534;2022-10-16T04:19:05;2.77;;;2.00;;
7607;SDS011;3845;48.120;11.534;2022-10-16T04:21:31;2.33;;;1.87;;
7607;SDS011;3845;48.120;11.534;2022-10-16T04:23:56;2.20;;;2.00;;
7607;SDS011;3845;48.120;11.534;2022-10-16T04:26:21;1.90;;;1.70;;
7607;SDS011;3845;48.120;11.534;2022-10-16T04:28:46;1.80;;;1.70;;
7607;SDS011;3845;48.120;11.534;2022-10-16T04:31:12;2.23;;;1.70;;
7607;SDS011;3845;48.120;11.534;2022-10-16T04:33:37;2.13;;;1.73;;
7607;SDS011;3845;48.120;11.534;2022-10-16T04:36:02;2.13;;;1.73;;
7607;SDS011;3845;48.120;11.534;2022-10-16T04:38:28;2.93;;;1.60;;
7607;SDS011;3845;48.120;11.534;2022-10-16T04:40:54;1.83;;;1.70;;
7607;SDS011;3845;48.120;11.534;2022-10-16T04:43:20;1.80;;;1.60;;
7607;SDS011;3845;48.120;11.534;2022-10-16T04:45:46;1.80;;;1.60;;
7607;SDS011;3845;48.120;11.534;2022-10-16T04:48:11;1.93;;;1.50;;
7607;SDS011;3845;48.120;11.534;2022-10-16T04:50:37;3.23;;;1.80;;
7607;SDS011;3845;48.120;11.534;2022-10-16T04:53:02;3.87;;;2.43;;
7607;SDS011;3845;48.120;11.534;2022-10-16T04:55:28;2.37;;;2.10;;
7607;SDS011;3845;48.120;11.534;2022-10-16T04:57:53;2.17;;;1.93;;
7607;SDS011;3845;48.120;11.534;2022-10-16T05:00:18;2.10;;;1.90;;
7607;SDS011;3845;48.120;11.534;2022-10-16T05:02:44;2.00;;;1.80;;
7607;SDS011;3845;48.120;11.534;2022-10-16T05:05:09;2.20;;;2.00;;
7607;SDS011;3845;48.120;11.534;2022-10-16T05:07:35;1.80;;;1.70;;
7607;SDS011;3845;48.120;11.534;2022-10-16T05:10:00;2.00;;;1.80;;
7607;SDS011;3845;48.120;11.534;2022-10-16T05:12:25;2.37;;;2.00;;
7607;SDS011;3845;48.120;11.534;2022-10-16T05:14:50;2.83;;;1.63;;
7607;SDS011;3845;48.120;11.534;2022-10-16T05:17:16;2.40;;;2.10;;
7607;SDS011;3845;48.120;11.534;2022-10-16T05:19:41;3.03;;;1.80;;
7607;SDS011;3845;48.120;11.534;2022-10-16T05:22:06;1.97;;;1.77;;
7607;SDS011;3845;48.120;11.534;2022-10-16T05:24:32;2.23;;;2.03;;
7607;SDS011;3845;48.120;11.534;2022-10-16T05:26:57;2.73;;;2.00;;
7607;SDS011;3845;48.120;11.534;2022-10-16T05:29:22;1.70;;;1.60;;
7607;SDS011;3845;48.120;11.534;2022-10-16T05:31:52;1.80;;;1.70;;
7607;SDS011;3845;48.120;11.534;2022-10-16T05:34:17;1.73;;;1.63;;
7607;SDS011;3845;48.120;11.534;2022-10-16T05:36:43;1.90;;;1.70;;
7607;SDS011;3845;48.120;11.534;2022-10-16T05:39:10;1.90;;;1.70;;
7607;SDS011;3845;48.120;11.534;2022-10-16T05:41:35;1.70;;;1.60;;
7607;SDS011;3845;48.120;11.534;2022-10-16T05:44:03;2.33;;;1.90;;
7607;SDS011;3845;48.120;11.534;2022-10-16T05:46:29;2.80;;;1.80;;
7607;SDS011;3845;48.120;11.534;2022-10-16T05:48:55;2.00;;;1.70;;
7607;SDS011;3845;48.120;11.534;2022-10-16T05:51:20;4.30;;;1.90;;
7607;SDS011;3845;48.120;11.534;2022-10-16T05:53:45;3.10;;;1.97;;
7607;SDS011;3845;48.120;11.534;2022-10-16T05:56:11;3.20;;;2.80;;
7607;SDS011;3845;48.120;11.534;2022-10-16T05:58:37;3.50;;;2.80;;
7607;SDS011;3845;48.120;11.534;2022-10-16T06:01:26;3.40;;;2.23;;
7607;SDS011;3845;48.120;11.534;2022-10-16T06:03:51;2.63;;;2.10;;
7607;SDS011;3845;48.120;11.534;2022-10-16T06:06:18;2.90;;;2.30;;
7607;SDS011;3845;48.120;11.534;2022-10-16T06:08:45;3.03;;;2.20;;
7607;SDS011;3845;48.120;11.534;2022-10-16T06:11:12;2.53;;;2.07;;
7607;SDS011;3845;48.120;11.534;2022-10-16T06:13:41;2.50;;;2.10;;
7607;SDS011;3845;48.120;11.534;2022-10-16T06:16:08;2.80;;;2.00;;
7607;SDS011;3845;48.120;11.534;2022-10-16T06:18:34;3.50;;;2.63;;
7607;SDS011;3845;48.120;11.534;2022-10-16T06:20:59;4.17;;;2.50;;
7607;SDS011;3845;48.120;11.534;2022-10-16T06:23:25;2.60;;;2.20;;
7607;SDS011;3845;48.120;11.534;2022-10-16T06:25:50;4.07;;;2.47;;
7607;SDS011;3845;48.120;11.534;2022-10-16T06:28:16;2.57;;;2.10;;
7607;SDS011;3845;48.120;11.534;2022-10-16T06:30:41;3.23;;;1.90;;
7607;SDS011;3845;48.120;11.534;2022-10-16T06:33:08;2.23;;;2.03;;
7607;SDS011;3845;48.120;11.534;2022-10-16T06:35:34;2.67;;;2.10;;
7607;SDS011;3845;48.120;11.534;2022-10-16T06:38:00;5.10;;;1.87;;
7607;SDS011;3845;48.120;11.534;2022-10-16T06:40:25;2.37;;;2.17;;
7607;SDS011;3845;48.120;11.534;2022-10-16T06:42:51;2.10;;;1.80;;
7607;SDS011;3845;48.120;11.534;2022-10-16T06:45:16;2.80;;;2.23;;
7607;SDS011;3845;48.120;11.534;2022-10-16T06:47:42;2.10;;;1.90;;
7607;SDS011;3845;48.120;11.534;2022-10-16T06:50:08;2.43;;;2.23;;
7607;SDS011;3845;48.120;11.534;2022-10-16T06:52:33;5.13;;;4.40;;
7607;SDS011;3845;48.120;11.534;2022-10-16T06:54:59;5.33;;;4.50;;
7607;SDS011;3845;48.120;11.534;2022-10-16T06:57:24;5.17;;;3.60;;
7607;SDS011;3845;48.120;11.534;2022-10-16T06:59:50;3.37;;;2.97;;
7607;SDS011;3845;48.120;11.534;2022-10-16T07:02:15;3.70;;;2.97;;
7607;SDS011;3845;48.120;11.534;2022-10-16T07:04:41;3.23;;;2.73;;
7607;SDS011;3845;48.120;11.534;2022-10-16T07:07:06;2.80;;;2.50;;
7607;SDS011;3845;48.120;11.534;2022-10-16T07:09:31;3.10;;;2.50;;
7607;SDS011;3845;48.120;11.534;2022-10-16T07:11:56;3.00;;;2.70;;
7607;SDS011;3845;48.120;11.534;2022-10-16T07:14:22;2.87;;;2.53;;
7607;SDS011;3845;48.120;11.534;2022-10-16T07:16:47;3.47;;;2.60;;
7607;SDS011;3845;48.120;11.534;2022-10-16T07:19:13;3.17;;;2.53;;
7607;SDS011;3845;48.120;11.534;2022-10-16T07:21:40;3.60;;;3.30;;
7607;SDS011;3845;48.120;11.534;2022-10-16T07:24:07;5.37;;;3.27;;
7607;SDS011;3845;48.120;11.534;2022-10-16T07:26:36;4.00;;;3.03;;
7607;SDS011;3845;48.120;11.534;2022-10-16T07:29:03;3.40;;;3.03;;
7607;SDS011;3845;48.120;11.534;2022-10-16T07:31:29;4.10;;;3.43;;
7607;SDS011;3845;48.120;11.534;2022-10-16T07:33:54;3.83;;;3.20;;
7607;SDS011;3845;48.120;11.534;2022-10-16T07:36:20;4.27;;;3.20;;
7607;SDS011;3845;48.120;11.534;2022-10-16T07:38:46;3.37;;;2.90;;
7607;SDS011;3845;48.120;11.534;2022-10-16T07:41:12;3.70;;;3.40;;
7607;SDS011;3845;48.120;11.534;2022-10-16T07:43:39;4.37;;;3.10;;
7607;SDS011;3845;48.120;11.534;2022-10-16T07:46:04;3.37;;;3.03;;
7607;SDS011;3845;48.120;11.534;2022-10-16T07:48:30;3.93;;;3.00;;
7607;SDS011;3845;48.120;11.534;2022-10-16T07:51:00;3.77;;;2.90;;
7607;SDS011;3845;48.120;11.534;2022-10-16T07:53:26;4.80;;;2.80;;
7607;SDS011;3845;48.120;11.534;2022-10-16T07:55:51;3.80;;;2.97;;
7607;SDS011;3845;48.120;11.534;2022-10-16T07:58:17;3.37;;;3.07;;
7607;SDS011;3845;48.120;11.534;2022-10-16T08:00:42;4.37;;;3.70;;
7607;SDS011;3845;48.120;11.534;2022-10-16T08:03:07;7.90;;;6.40;;
7607;SDS011;3845;48.120;11.534;2022-10-16T08:05:33;8.03;;;6.73;;
7607;SDS011;3845;48.120;11.534;2022-10-16T08:07:59;5.30;;;4.80;;
7607;SDS011;3845;48.120;11.534;2022-10-16T08:10:25;5.90;;;5.17;;
7607;SDS011;3845;48.120;11.534;2022-10-16T08:12:51;4.63;;;3.90;;
7607;SDS011;3845;48.120;11.534;2022-10-16T08:15:17;4.47;;;3.50;;
7607;SDS011;3845;48.120;11.534;2022-10-16T08:17:43;4.87;;;3.50;;
7607;SDS011;3845;48.120;11.534;2022-10-16T08:20:08;2.90;;;2.60;;
7607;SDS011;3845;48.120;11.534;2022-10-16T08:22:34;3.50;;;3.00;;
7607;SDS011;3845;48.120;11.534;2022-10-16T08:25:00;4.33;;;3.40;;
7607;SDS011;3845;48.120;11.534;2022-10-16T08:27:30;5.07;;;3.30;;
7607;SDS011;3845;48.120;11.534;2022-10-16T08:29:56;3.57;;;3.27;;
7607;SDS011;3845;48.120;11.534;2022-10-16T08:32:21;3.07;;;2.77;;
7607;SDS011;3845;48.120;11.534;2022-10-16T08:34:46;3.83;;;2.43;;
7607;SDS011;3845;48.120;11.534;2022-10-16T08:37:12;3.43;;;3.10;;
7607;SDS011;3845;48.120;11.534;2022-10-16T08:39:38;3.40;;;3.10;;
7607;SDS011;3845;48.120;11.534;2022-10-16T08:45:02;3.47;;;2.67;;
7607;SDS011;3845;48.120;11.534;2022-10-16T08:47:53;2.60;;;2.40;;
7607;SDS011;3845;48.120;11.534;2022-10-16T08:50:26;2.87;;;2.47;;
7607;SDS011;3845;48.120;11.534;2022-10-16T08:52:53;4.00;;;3.30;;
7607;SDS011;3845;48.120;11.534;2022-10-16T08:58:08;3.57;;;2.37;;
7607;SDS011;3845;48.120;11.534;2022-10-16T09:00:36;2.83;;;2.30;;
7607;SDS011;3845;48.120;11.534;2022-10-16T09:03:17;3.10;;;2.60;;
7607;SDS011;3845;48.120;11.534;2022-10-16T09:05:54;3.07;;;2.33;;
7607;SDS011;3845;48.120;11.534;2022-10-16T09:11:13;2.70;;;2.40;;
7607;SDS011;3845;48.120;11.534;2022-10-16T09:13:51;2.80;;;2.50;;
7607;SDS011;3845;48.120;11.534;2022-10-16T09:16:30;3.20;;;2.00;;
7607;SDS011;3845;48.120;11.534;2022-10-16T09:21:46;2.40;;;2.00;;
7607;SDS011;3845;48.120;11.534;2022-10-16T09:26:42;3.17;;;2.00;;
7607;SDS011;3845;48.120;11.534;2022-10-16T09:29:11;2.63;;;2.40;;
7607;SDS011;3845;48.120;11.534;2022-10-16T09:31:37;3.73;;;2.90;;
7607;SDS011;3845;48.120;11.534;2022-10-16T09:34:03;3.37;;;3.07;;
7607;SDS011;3845;48.120;11.534;2022-10-16T09:36:35;4.53;;;2.93;;
7607;SDS011;3845;48.120;11.534;2022-10-16T09:39:06;4.33;;;2.90;;
7607;SDS011;3845;48.120;11.534;2022-10-16T09:41:34;4.73;;;2.90;;
7607;SDS011;3845;48.120;11.534;2022-10-16T09:44:04;3.20;;;2.37;;
7607;SDS011;3845;48.120;11.534;2022-10-16T09:46:39;3.40;;;3.03;;
7607;SDS011;3845;48.120;11.534;2022-10-16T09:49:16;5.10;;;4.33;;
7607;SDS011;3845;48.120;11.534;2022-10-16T09:51:45;3.83;;;3.43;;
7607;SDS011;3845;48.120;11.534;2022-10-16T09:54:14;5.67;;;3.30;;
7607;SDS011;3845;48.120;11.534;2022-10-16T09:56:40;2.93;;;2.70;;
7607;SDS011;3845;48.120;11.534;2022-10-16T09:59:10;4.57;;;2.70;;
7607;SDS011;3845;48.120;11.534;2022-10-16T10:01:43;3.03;;;2.70;;
7607;SDS011;3845;48.120;11.534;2022-10-16T10:04:11;4.37;;;3.10;;
7607;SDS011;3845;48.120;11.534;2022-10-16T10:06:40;3.40;;;3.10;;
7607;SDS011;3845;48.120;11.534;2022-10-16T10:09:17;4.17;;;3.40;;
7607;SDS011;3845;48.120;11.534;2022-10-16T10:11:50;3.67;;;3.10;;
7607;SDS011;3845;48.120;11.534;2022-10-16T10:14:18;4.90;;;4.13;;
7607;SDS011;3845;48.120;11.534;2022-10-16T10:16:45;5.57;;;4.43;;
7607;SDS011;3845;48.120;11.534;2022-10-16T10:19:18;5.57;;;4.43;;
7607;SDS011;3845;48.120;11.534;2022-10-16T10:21:48;5.20;;;3.43;;
7607;SDS011;3845;48.120;11.534;2022-10-16T10:24:15;3.80;;;3.00;;
7607;SDS011;3845;48.120;11.534;2022-10-16T10:26:44;3.73;;;3.17;;
7607;SDS011;3845;48.120;11.534;2022-10-16T10:29:20;4.80;;;3.93;;
7607;SDS011;3845;48.120;11.534;2022-10-16T10:32:00;3.77;;;3.37;;
7607;SDS011;3845;48.120;11.534;2022-10-16T10:39:55;2.90;;;2.60;;
7607;SDS011;3845;48.120;11.534;2022-10-16T10:50:52;2.37;;;2.00;;
7607;SDS011;3845;48.120;11.534;2022-10-16T10:58:32;3.70;;;2.17;;
7607;SDS011;3845;48.120;11.534;2022-10-16T11:01:42;2.13;;;1.93;;
7607;SDS011;3845;48.120;11.534;2022-10-16T11:07:04;2.10;;;1.87;;
7607;SDS011;3845;48.120;11.534;2022-10-16T11:09:37;2.47;;;1.70;;
7607;SDS011;3845;48.120;11.534;2022-10-16T11:12:07;2.77;;;1.50;;
7607;SDS011;3845;48.120;11.534;2022-10-16T11:17:14;2.03;;;1.83;;
7607;SDS011;3845;48.120;11.534;2022-10-16T11:20:02;2.40;;;1.73;;
7607;SDS011;3845;48.120;11.534;2022-10-16T11:22:36;1.60;;;1.50;;
7607;SDS011;3845;48.120;11.534;2022-10-16T11:28:01;1.63;;;1.50;;
7607;SDS011;3845;48.120;11.534;2022-10-16T11:30:39;2.23;;;1.40;;
7607;SDS011;3845;48.120;11.534;2022-10-16T11:33:13;1.40;;;1.30;;
7607;SDS011;3845;48.120;11.534;2022-10-16T11:35:48;2.43;;;1.67;;
7607;SDS011;3845;48.120;11.534;2022-10-16T11:38:26;1.93;;;1.50;;
7607;SDS011;3845;48.120;11.534;2022-10-16T11:40:54;2.87;;;1.27;;
7607;SDS011;3845;48.120;11.534;2022-10-16T11:43:34;2.07;;;1.10;;
7607;SDS011;3845;48.120;11.534;2022-10-16T11:46:11;1.60;;;1.37;;
7607;SDS011;3845;48.120;11.534;2022-10-16T11:56:50;2.43;;;2.23;;
7607;SDS011;3845;48.120;11.534;2022-10-16T12:01:51;2.40;;;1.70;;
7607;SDS011;3845;48.120;11.534;2022-10-16T12:04:33;2.20;;;1.90;;
7607;SDS011;3845;48.120;11.534;2022-10-16T12:07:11;2.17;;;1.50;;
7607;SDS011;3845;48.120;11.534;2022-10-16T12:09:39;1.30;;;1.20;;
7607;SDS011;3845;48.120;11.534;2022-10-16T12:12:23;1.30;;;1.20;;
7607;SDS011;3845;48.120;11.534;2022-10-16T12:14:58;1.80;;;1.40;;
7607;SDS011;3845;48.120;11.534;2022-10-16T12:17:36;1.37;;;1.23;;
7607;SDS011;3845;48.120;11.534;2022-10-16T12:22:40;4.53;;;2.97;;
7607;SDS011;3845;48.120;11.534;2022-10-16T12:25:19;2.00;;;1.80;;
7607;SDS011;3845;48.120;11.534;2022-10-16T12:30:39;3.90;;;2.70;;
7607;SDS011;3845;48.120;11.534;2022-10-16T12:33:05;4.33;;;2.87;;
7607;SDS011;3845;48.120;11.534;2022-10-16T12:35:43;1.80;;;1.70;;
7607;SDS011;3845;48.120;11.534;2022-10-16T12:38:25;2.77;;;1.60;;
7607;SDS011;3845;48.120;11.534;2022-10-16T12:40:59;2.20;;;2.00;;
7607;SDS011;3845;48.120;11.534;2022-10-16T12:43:35;3.40;;;2.10;;
7607;SDS011;3845;48.120;11.534;2022-10-16T12:46:22;2.40;;;2.20;;
7607;SDS011;3845;48.120;11.534;2022-10-16T12:49:04;2.07;;;1.80;;
7607;SDS011;3845;48.120;11.534;2022-10-16T12:54:03;1.70;;;1.60;;
7607;SDS011;3845;48.120;11.534;2022-10-16T12:56:51;1.57;;;1.47;;
7607;SDS011;3845;48.120;11.534;2022-10-16T12:59:43;1.90;;;1.70;;
7607;SDS011;3845;48.120;11.534;2022-10-16T13:05:12;2.40;;;1.20;;
7607;SDS011;3845;48.120;11.534;2022-10-16T13:16:12;1.50;;;1.30;;
7607;SDS011;3845;48.120;11.534;2022-10-16T13:29:41;3.00;;;2.00;;
7607;SDS011;3845;48.120;11.534;2022-10-16T13:32:07;2.63;;;1.90;;
7607;SDS011;3845;48.120;11.534;2022-10-16T13:34:41;2.50;;;2.30;;
7607;SDS011;3845;48.120;11.534;2022-10-16T13:37:16;3.23;;;1.90;;
7607;SDS011;3845;48.120;11.534;2022-10-16T13:39:45;3.57;;;2.20;;
7607;SDS011;3845;48.120;11.534;2022-10-16T13:42:17;3.17;;;2.60;;
7607;SDS011;3845;48.120;11.534;2022-10-16T13:44:51;5.83;;;4.47;;
7607;SDS011;3845;48.120;11.534;2022-10-16T13:49:44;2.40;;;2.20;;
7607;SDS011;3845;48.120;11.534;2022-10-16T13:52:19;2.53;;;2.07;;
7607;SDS011;3845;48.120;11.534;2022-10-16T13:54:46;3.40;;;1.90;;
7607;SDS011;3845;48.120;11.534;2022-10-16T13:57:15;1.97;;;1.70;;
7607;SDS011;3845;48.120;11.534;2022-10-16T13:59:40;2.17;;;1.70;;
7607;SDS011;3845;48.120;11.534;2022-10-16T14:04:51;2.30;;;2.10;;
7607;SDS011;3845;48.120;11.534;2022-10-16T14:07:20;2.77;;;2.30;;
7607;SDS011;3845;48.120;11.534;2022-10-16T14:09:53;3.17;;;1.40;;
7607;SDS011;3845;48.120;11.534;2022-10-16T14:12:19;2.03;;;1.30;;
7607;SDS011;3845;48.120;11.534;2022-10-16T14:14:45;1.83;;;1.30;;
7607;SDS011;3845;48.120;11.534;2022-10-16T14:17:19;3.20;;;1.80;;
7607;SDS011;3845;48.120;11.534;2022-10-16T14:19:53;1.87;;;1.50;;
7607;SDS011;3845;48.120;11.534;2022-10-16T14:22:28;2.23;;;1.50;;
7607;SDS011;3845;48.120;11.534;2022-10-16T14:24:57;1.50;;;1.20;;
7607;SDS011;3845;48.120;11.534;2022-10-16T14:27:31;2.93;;;1.40;;
7607;SDS011;3845;48.120;11.534;2022-10-16T14:32:32;2.03;;;1.83;;
7607;SDS011;3845;48.120;11.534;2022-10-16T14:34:58;2.17;;;1.90;;
7607;SDS011;3845;48.120;11.534;2022-10-16T14:37:24;2.27;;;2.03;;
7607;SDS011;3845;48.120;11.534;2022-10-16T14:39:51;2.50;;;1.80;;
7607;SDS011;3845;48.120;11.534;2022-10-16T14:42:17;1.57;;;1.47;;
7607;SDS011;3845;48.120;11.534;2022-10-16T14:44:44;1.77;;;1.30;;
7607;SDS011;3845;48.120;11.534;2022-10-16T14:47:16;2.97;;;1.50;;
7607;SDS011;3845;48.120;11.534;2022-10-16T14:49:47;1.93;;;1.43;;
7607;SDS011;3845;48.120;11.534;2022-10-16T14:52:12;1.30;;;1.20;;
7607;SDS011;3845;48.120;11.534;2022-10-16T14:54:37;1.90;;;1.23;;
7607;SDS011;3845;48.120;11.534;2022-10-16T14:57:03;2.77;;;1.47;;
7607;SDS011;3845;48.120;11.534;2022-10-16T14:59:36;1.90;;;1.47;;
7607;SDS011;3845;48.120;11.534;2022-10-16T15:04:54;2.83;;;1.40;;
7607;SDS011;3845;48.120;11.534;2022-10-16T15:07:20;1.60;;;1.43;;
7607;SDS011;3845;48.120;11.534;2022-10-16T15:09:45;1.37;;;1.10;;
7607;SDS011;3845;48.120;11.534;2022-10-16T15:12:10;2.17;;;1.50;;
7607;SDS011;3845;48.120;11.534;2022-10-16T15:14:36;1.60;;;1.50;;
7607;SDS011;3845;48.120;11.534;2022-10-16T15:17:01;2.60;;;1.63;;
7607;SDS011;3845;48.120;11.534;2022-10-16T15:19:27;2.30;;;1.53;;
7607;SDS011;3845;48.120;11.534;2022-10-16T15:21:52;1.93;;;1.60;;
7607;SDS011;3845;48.120;11.534;2022-10-16T15:24:17;4.80;;;2.60;;
7607;SDS011;3845;48.120;11.534;2022-10-16T15:26:43;3.10;;;2.10;;
7607;SDS011;3845;48.120;11.534;2022-10-16T15:29:10;2.90;;;1.73;;
7607;SDS011;3845;48.120;11.534;2022-10-16T15:31:36;2.17;;;1.97;;
7607;SDS011;3845;48.120;11.534;2022-10-16T15:34:02;4.73;;;2.37;;
7607;SDS011;3845;48.120;11.534;2022-10-16T15:36:30;2.83;;;2.20;;
7607;SDS011;3845;48.120;11.534;2022-10-16T15:38:59;3.03;;;2.00;;
7607;SDS011;3845;48.120;11.534;2022-10-16T15:41:24;2.00;;;1.80;;
7607;SDS011;3845;48.120;11.534;2022-10-16T15:43:50;2.57;;;2.03;;
7607;SDS011;3845;48.120;11.534;2022-10-16T15:46:19;2.50;;;1.90;;
7607;SDS011;3845;48.120;11.534;2022-10-16T15:48:46;2.77;;;2.10;;
7607;SDS011;3845;48.120;11.534;2022-10-16T15:51:12;2.50;;;2.30;;
7607;SDS011;3845;48.120;11.534;2022-10-16T15:53:38;2.30;;;2.00;;
7607;SDS011;3845;48.120;11.534;2022-10-16T15:56:04;2.70;;;2.07;;
7607;SDS011;3845;48.120;11.534;2022-10-16T15:58:30;3.67;;;2.00;;
7607;SDS011;3845;48.120;11.534;2022-10-16T16:00:56;2.50;;;2.30;;
7607;SDS011;3845;48.120;11.534;2022-10-16T16:03:22;2.67;;;2.27;;
7607;SDS011;3845;48.120;11.534;2022-10-16T16:05:47;3.60;;;2.20;;
7607;SDS011;3845;48.120;11.534;2022-10-16T16:08:12;2.50;;;2.10;;
7607;SDS011;3845;48.120;11.534;2022-10-16T16:10:38;3.30;;;1.83;;
7607;SDS011;3845;48.120;11.534;2022-10-16T16:13:03;3.60;;;2.10;;
7607;SDS011;3845;48.120;11.534;2022-10-16T16:15:28;2.67;;;2.00;;
7607;SDS011;3845;48.120;11.534;2022-10-16T16:17:53;2.17;;;1.90;;
7607;SDS011;3845;48.120;11.534;2022-10-16T16:20:19;2.33;;;2.03;;
7607;SDS011;3845;48.120;11.534;2022-10-16T16:22:44;3.43;;;2.27;;
7607;SDS011;3845;48.120;11.534;2022-10-16T16:25:09;3.90;;;2.07;;
7607;SDS011;3845;48.120;11.534;2022-10-16T16:27:35;3.40;;;2.60;;
7607;SDS011;3845;48.120;11.534;2022-10-16T16:30:03;6.60;;;3.53;;
7607;SDS011;3845;48.120;11.534;2022-10-16T16:32:29;4.53;;;3.40;;
7607;SDS011;3845;48.120;11.534;2022-10-16T16:34:55;4.07;;;3.03;;
7607;SDS011;3845;48.120;11.534;2022-10-16T16:37:20;5.73;;;3.10;;
7607;SDS011;3845;48.120;11.534;2022-10-16T16:39:45;4.17;;;2.70;;
7607;SDS011;3845;48.120;11.534;2022-10-16T16:42:11;5.07;;;3.93;;
7607;SDS011;3845;48.120;11.534;2022-10-16T16:44:36;3.97;;;3.40;;
7607;SDS011;3845;48.120;11.534;2022-10-16T16:47:02;3.97;;;3.10;;
7607;SDS011;3845;48.120;11.534;2022-10-16T16:49:28;4.53;;;2.80;;
7607;SDS011;3845;48.120;11.534;2022-10-16T16:51:53;4.60;;;3.20;;
7607;SDS011;3845;48.120;11.534;2022-10-16T16:54:19;4.23;;;3.00;;